<?xml version="1.0" encoding="UTF-8" standalone="no" ?>
<gpx xmlns="http://www.topografix.com/GPX/1/1" xmlns:xsi="http://www.w3.org/2001/XMLSchema-instance" xsi:schemaLocation="http://www.topografix.com/GPX/1/1 http://www.topografix.com/GPX/1/1/gpx.xsd" version="1.1" creator="VisuGPX - https://www.visugpx.com">
  <metadata>
    <name>reco-protec</name>
    <desc><![CDATA[                                                                                                                                     
                                                                                              
                                                                                        
                                                         ]]></desc>
  </metadata>
  <trk>
    <name><![CDATA[12 nov. 2017 à 15:19:48]]></name>
    <cmt><![CDATA[12 nov. 2017 à 15:19:48]]></cmt>
    <trkseg>
      <trkpt lat="48.81235" lon="2.18815">
        <ele>111</ele>
        <time>2017-11-12T14:19:48Z</time>
      </trkpt>
      <trkpt lat="48.81228" lon="2.18811">
        <ele>116</ele>
        <time>2017-11-12T14:19:50Z</time>
      </trkpt>
      <trkpt lat="48.81222" lon="2.18818">
        <ele>113</ele>
        <time>2017-11-12T14:20:00Z</time>
      </trkpt>
      <trkpt lat="48.81219" lon="2.18791">
        <ele>111</ele>
        <time>2017-11-12T14:20:39Z</time>
      </trkpt>
      <trkpt lat="48.81219" lon="2.18772">
        <ele>113</ele>
        <time>2017-11-12T14:20:46Z</time>
      </trkpt>
      <trkpt lat="48.81238" lon="2.18724">
        <ele>115</ele>
        <time>2017-11-12T14:21:13Z</time>
      </trkpt>
      <trkpt lat="48.81242" lon="2.18717">
        <ele>116</ele>
        <time>2017-11-12T14:21:17Z</time>
      </trkpt>
      <trkpt lat="48.81245" lon="2.18712">
        <ele>116</ele>
        <time>2017-11-12T14:21:20Z</time>
      </trkpt>
      <trkpt lat="48.8126" lon="2.18695">
        <ele>117</ele>
        <time>2017-11-12T14:21:32Z</time>
      </trkpt>
      <trkpt lat="48.81279" lon="2.18637">
        <ele>118</ele>
        <time>2017-11-12T14:22:03Z</time>
      </trkpt>
      <trkpt lat="48.813" lon="2.18602">
        <ele>122</ele>
        <time>2017-11-12T14:22:24Z</time>
      </trkpt>
      <trkpt lat="48.81305" lon="2.1858">
        <ele>123</ele>
        <time>2017-11-12T14:22:35Z</time>
      </trkpt>
      <trkpt lat="48.81309" lon="2.18577">
        <ele>124</ele>
        <time>2017-11-12T14:22:38Z</time>
      </trkpt>
      <trkpt lat="48.81313" lon="2.18572">
        <ele>124</ele>
        <time>2017-11-12T14:22:42Z</time>
      </trkpt>
      <trkpt lat="48.8132" lon="2.18558">
        <ele>125</ele>
        <time>2017-11-12T14:22:50Z</time>
      </trkpt>
      <trkpt lat="48.81326" lon="2.18548">
        <ele>125</ele>
        <time>2017-11-12T14:22:57Z</time>
      </trkpt>
      <trkpt lat="48.81333" lon="2.18528">
        <ele>126</ele>
        <time>2017-11-12T14:23:07Z</time>
      </trkpt>
      <trkpt lat="48.81335" lon="2.1852">
        <ele>125</ele>
        <time>2017-11-12T14:23:11Z</time>
      </trkpt>
      <trkpt lat="48.81339" lon="2.18514">
        <ele>125</ele>
        <time>2017-11-12T14:23:15Z</time>
      </trkpt>
      <trkpt lat="48.81348" lon="2.18488">
        <ele>126</ele>
        <time>2017-11-12T14:23:28Z</time>
      </trkpt>
      <trkpt lat="48.81353" lon="2.18484">
        <ele>126</ele>
        <time>2017-11-12T14:23:32Z</time>
      </trkpt>
      <trkpt lat="48.8137" lon="2.18464">
        <ele>128</ele>
        <time>2017-11-12T14:23:51Z</time>
      </trkpt>
      <trkpt lat="48.81378" lon="2.18457">
        <ele>129</ele>
        <time>2017-11-12T14:24:00Z</time>
      </trkpt>
      <trkpt lat="48.81384" lon="2.1846">
        <ele>130</ele>
        <time>2017-11-12T14:24:30Z</time>
      </trkpt>
      <trkpt lat="48.8139" lon="2.18458">
        <ele>131</ele>
        <time>2017-11-12T14:24:34Z</time>
      </trkpt>
      <trkpt lat="48.81394" lon="2.18455">
        <ele>131</ele>
        <time>2017-11-12T14:24:39Z</time>
      </trkpt>
      <trkpt lat="48.81404" lon="2.18456">
        <ele>132</ele>
        <time>2017-11-12T14:24:47Z</time>
      </trkpt>
      <trkpt lat="48.8142" lon="2.18453">
        <ele>134</ele>
        <time>2017-11-12T14:24:57Z</time>
      </trkpt>
      <trkpt lat="48.81436" lon="2.18458">
        <ele>135</ele>
        <time>2017-11-12T14:25:09Z</time>
      </trkpt>
      <trkpt lat="48.81441" lon="2.18458">
        <ele>136</ele>
        <time>2017-11-12T14:25:15Z</time>
      </trkpt>
      <trkpt lat="48.81446" lon="2.1846">
        <ele>136</ele>
        <time>2017-11-12T14:25:20Z</time>
      </trkpt>
      <trkpt lat="48.81453" lon="2.18458">
        <ele>137</ele>
        <time>2017-11-12T14:25:29Z</time>
      </trkpt>
      <trkpt lat="48.81458" lon="2.18454">
        <ele>138</ele>
        <time>2017-11-12T14:25:44Z</time>
      </trkpt>
      <trkpt lat="48.81488" lon="2.18462">
        <ele>141</ele>
        <time>2017-11-12T14:26:15Z</time>
      </trkpt>
      <trkpt lat="48.81497" lon="2.18461">
        <ele>141</ele>
        <time>2017-11-12T14:26:22Z</time>
      </trkpt>
      <trkpt lat="48.81538" lon="2.18458">
        <ele>149</ele>
        <time>2017-11-12T14:26:53Z</time>
      </trkpt>
      <trkpt lat="48.81548" lon="2.18461">
        <ele>151</ele>
        <time>2017-11-12T14:27:02Z</time>
      </trkpt>
      <trkpt lat="48.81551" lon="2.1845">
        <ele>152</ele>
        <time>2017-11-12T14:27:33Z</time>
      </trkpt>
      <trkpt lat="48.8155" lon="2.18442">
        <ele>153</ele>
        <time>2017-11-12T14:27:37Z</time>
      </trkpt>
      <trkpt lat="48.81551" lon="2.18421">
        <ele>153</ele>
        <time>2017-11-12T14:27:49Z</time>
      </trkpt>
      <trkpt lat="48.8155" lon="2.18412">
        <ele>154</ele>
        <time>2017-11-12T14:27:53Z</time>
      </trkpt>
      <trkpt lat="48.81549" lon="2.18396">
        <ele>154</ele>
        <time>2017-11-12T14:28:00Z</time>
      </trkpt>
      <trkpt lat="48.81549" lon="2.18379">
        <ele>155</ele>
        <time>2017-11-12T14:28:08Z</time>
      </trkpt>
      <trkpt lat="48.81552" lon="2.18326">
        <ele>158</ele>
        <time>2017-11-12T14:28:33Z</time>
      </trkpt>
      <trkpt lat="48.81549" lon="2.18311">
        <ele>159</ele>
        <time>2017-11-12T14:28:40Z</time>
      </trkpt>
      <trkpt lat="48.8154" lon="2.18276">
        <ele>161</ele>
        <time>2017-11-12T14:28:57Z</time>
      </trkpt>
      <trkpt lat="48.81532" lon="2.18264">
        <ele>161</ele>
        <time>2017-11-12T14:29:03Z</time>
      </trkpt>
      <trkpt lat="48.81528" lon="2.18259">
        <ele>161</ele>
        <time>2017-11-12T14:29:05Z</time>
      </trkpt>
      <trkpt lat="48.81524" lon="2.18253">
        <ele>161</ele>
        <time>2017-11-12T14:29:09Z</time>
      </trkpt>
      <trkpt lat="48.8152" lon="2.1825">
        <ele>161</ele>
        <time>2017-11-12T14:29:13Z</time>
      </trkpt>
      <trkpt lat="48.81518" lon="2.18243">
        <ele>161</ele>
        <time>2017-11-12T14:29:17Z</time>
      </trkpt>
      <trkpt lat="48.81511" lon="2.18232">
        <ele>162</ele>
        <time>2017-11-12T14:29:24Z</time>
      </trkpt>
      <trkpt lat="48.81496" lon="2.18211">
        <ele>162</ele>
        <time>2017-11-12T14:29:38Z</time>
      </trkpt>
      <trkpt lat="48.81494" lon="2.18204">
        <ele>163</ele>
        <time>2017-11-12T14:29:42Z</time>
      </trkpt>
      <trkpt lat="48.81488" lon="2.1819">
        <ele>163</ele>
        <time>2017-11-12T14:29:48Z</time>
      </trkpt>
      <trkpt lat="48.8148" lon="2.18161">
        <ele>163</ele>
        <time>2017-11-12T14:30:02Z</time>
      </trkpt>
      <trkpt lat="48.81476" lon="2.18155">
        <ele>163</ele>
        <time>2017-11-12T14:30:05Z</time>
      </trkpt>
      <trkpt lat="48.81471" lon="2.18142">
        <ele>164</ele>
        <time>2017-11-12T14:30:11Z</time>
      </trkpt>
      <trkpt lat="48.81468" lon="2.18126">
        <ele>164</ele>
        <time>2017-11-12T14:30:19Z</time>
      </trkpt>
      <trkpt lat="48.81463" lon="2.18126">
        <ele>164</ele>
        <time>2017-11-12T14:30:24Z</time>
      </trkpt>
      <trkpt lat="48.81462" lon="2.18134">
        <ele>164</ele>
        <time>2017-11-12T14:30:28Z</time>
      </trkpt>
      <trkpt lat="48.81461" lon="2.18142">
        <ele>163</ele>
        <time>2017-11-12T14:30:34Z</time>
      </trkpt>
      <trkpt lat="48.8146" lon="2.18157">
        <ele>161</ele>
        <time>2017-11-12T14:30:45Z</time>
      </trkpt>
      <trkpt lat="48.81458" lon="2.18164">
        <ele>160</ele>
        <time>2017-11-12T14:30:49Z</time>
      </trkpt>
      <trkpt lat="48.81458" lon="2.18179">
        <ele>158</ele>
        <time>2017-11-12T14:30:57Z</time>
      </trkpt>
      <trkpt lat="48.81457" lon="2.18187">
        <ele>157</ele>
        <time>2017-11-12T14:31:03Z</time>
      </trkpt>
      <trkpt lat="48.81457" lon="2.18202">
        <ele>154</ele>
        <time>2017-11-12T14:31:13Z</time>
      </trkpt>
      <trkpt lat="48.81455" lon="2.18217">
        <ele>152</ele>
        <time>2017-11-12T14:31:21Z</time>
      </trkpt>
      <trkpt lat="48.81451" lon="2.1823">
        <ele>149</ele>
        <time>2017-11-12T14:31:32Z</time>
      </trkpt>
      <trkpt lat="48.8145" lon="2.18237">
        <ele>148</ele>
        <time>2017-11-12T14:31:37Z</time>
      </trkpt>
      <trkpt lat="48.81451" lon="2.18244">
        <ele>146</ele>
        <time>2017-11-12T14:31:43Z</time>
      </trkpt>
      <trkpt lat="48.81448" lon="2.18268">
        <ele>142</ele>
        <time>2017-11-12T14:31:59Z</time>
      </trkpt>
      <trkpt lat="48.81444" lon="2.18281">
        <ele>139</ele>
        <time>2017-11-12T14:32:09Z</time>
      </trkpt>
      <trkpt lat="48.81443" lon="2.183">
        <ele>137</ele>
        <time>2017-11-12T14:32:18Z</time>
      </trkpt>
      <trkpt lat="48.81444" lon="2.18307">
        <ele>136</ele>
        <time>2017-11-12T14:32:21Z</time>
      </trkpt>
      <trkpt lat="48.81441" lon="2.18323">
        <ele>133</ele>
        <time>2017-11-12T14:32:33Z</time>
      </trkpt>
      <trkpt lat="48.8144" lon="2.1837">
        <ele>130</ele>
        <time>2017-11-12T14:32:56Z</time>
      </trkpt>
      <trkpt lat="48.81441" lon="2.18385">
        <ele>130</ele>
        <time>2017-11-12T14:33:06Z</time>
      </trkpt>
      <trkpt lat="48.8144" lon="2.18392">
        <ele>130</ele>
        <time>2017-11-12T14:33:10Z</time>
      </trkpt>
      <trkpt lat="48.8144" lon="2.184">
        <ele>130</ele>
        <time>2017-11-12T14:33:14Z</time>
      </trkpt>
      <trkpt lat="48.81429" lon="2.18452">
        <ele>135</ele>
        <time>2017-11-12T14:33:41Z</time>
      </trkpt>
      <trkpt lat="48.81425" lon="2.18455">
        <ele>135</ele>
        <time>2017-11-12T14:33:45Z</time>
      </trkpt>
      <trkpt lat="48.81405" lon="2.18461">
        <ele>133</ele>
        <time>2017-11-12T14:33:59Z</time>
      </trkpt>
      <trkpt lat="48.81395" lon="2.18465">
        <ele>132</ele>
        <time>2017-11-12T14:34:05Z</time>
      </trkpt>
      <trkpt lat="48.8139" lon="2.18466">
        <ele>131</ele>
        <time>2017-11-12T14:34:09Z</time>
      </trkpt>
      <trkpt lat="48.8138" lon="2.18473">
        <ele>129</ele>
        <time>2017-11-12T14:34:16Z</time>
      </trkpt>
      <trkpt lat="48.8136" lon="2.18481">
        <ele>127</ele>
        <time>2017-11-12T14:34:29Z</time>
      </trkpt>
      <trkpt lat="48.81355" lon="2.18484">
        <ele>127</ele>
        <time>2017-11-12T14:34:33Z</time>
      </trkpt>
      <trkpt lat="48.81352" lon="2.18489">
        <ele>126</ele>
        <time>2017-11-12T14:34:36Z</time>
      </trkpt>
      <trkpt lat="48.81343" lon="2.18497">
        <ele>126</ele>
        <time>2017-11-12T14:34:43Z</time>
      </trkpt>
      <trkpt lat="48.81336" lon="2.18513">
        <ele>125</ele>
        <time>2017-11-12T14:35:16Z</time>
      </trkpt>
      <trkpt lat="48.81334" lon="2.18528">
        <ele>126</ele>
        <time>2017-11-12T14:35:26Z</time>
      </trkpt>
      <trkpt lat="48.81332" lon="2.18535">
        <ele>127</ele>
        <time>2017-11-12T14:35:30Z</time>
      </trkpt>
      <trkpt lat="48.8133" lon="2.18542">
        <ele>127</ele>
        <time>2017-11-12T14:35:34Z</time>
      </trkpt>
      <trkpt lat="48.81295" lon="2.18608">
        <ele>123</ele>
        <time>2017-11-12T14:36:08Z</time>
      </trkpt>
      <trkpt lat="48.81272" lon="2.18659">
        <ele>121</ele>
        <time>2017-11-12T14:36:33Z</time>
      </trkpt>
      <trkpt lat="48.8126" lon="2.18689">
        <ele>119</ele>
        <time>2017-11-12T14:36:50Z</time>
      </trkpt>
      <trkpt lat="48.81245" lon="2.18706">
        <ele>118</ele>
        <time>2017-11-12T14:37:01Z</time>
      </trkpt>
      <trkpt lat="48.81217" lon="2.18762">
        <ele>114</ele>
        <time>2017-11-12T14:37:33Z</time>
      </trkpt>
      <trkpt lat="48.81213" lon="2.18776">
        <ele>113</ele>
        <time>2017-11-12T14:37:42Z</time>
      </trkpt>
      <trkpt lat="48.81225" lon="2.18789">
        <ele>113</ele>
        <time>2017-11-12T14:38:07Z</time>
      </trkpt>
      <trkpt lat="48.81234" lon="2.18789">
        <ele>111</ele>
        <time>2017-11-12T14:38:15Z</time>
      </trkpt>
      <trkpt lat="48.81242" lon="2.18796">
        <ele>109</ele>
        <time>2017-11-12T14:38:25Z</time>
      </trkpt>
      <trkpt lat="48.81245" lon="2.18809">
        <ele>108</ele>
        <time>2017-11-12T14:38:33Z</time>
      </trkpt>
      <trkpt lat="48.81252" lon="2.1882">
        <ele>107</ele>
        <time>2017-11-12T14:38:41Z</time>
      </trkpt>
      <trkpt lat="48.81258" lon="2.18831">
        <ele>107</ele>
        <time>2017-11-12T14:38:52Z</time>
      </trkpt>
      <trkpt lat="48.81267" lon="2.18839">
        <ele>107</ele>
        <time>2017-11-12T14:39:05Z</time>
      </trkpt>
    </trkseg>
  </trk>
</gpx>